Time;durP1;ratioP1;P1;durP2;ratioP2;P2;SDS_P1;SDS_P2;PMS_P1;PMS_P2;Temp;Humidity;BMP_temperature;BMP_pressure;BME280_temperature;BME280_humidity;BME280_pressure;Samples;Min_cycle;Max_cycle;Signal;HPM_P1;HPM_P2
2024/03/31 00:01:13;;;;;;;;;;;17.60;58.90;;;;;;5052279;28;19939;-75
2024/03/31 00:03:40;;;;;;;;;;;17.20;59.10;;;;;;5052335;28;19954;-75
2024/03/31 00:06:06;;;;;;;;;;;17.30;59.00;;;;;;5052279;28;20324;-75
2024/03/31 00:08:32;;;;;;;;;;;17.30;58.80;;;;;;5052108;28;19909;-75
2024/03/31 00:10:59;;;;;;;;;;;17.30;59.20;;;;;;5052016;28;20267;-75
2024/03/31 00:13:24;;;;;;;;;;;17.30;59.50;;;;;;5052042;28;19909;-75
2024/03/31 00:15:50;;;;;;;;;;;17.30;59.30;;;;;;5051705;28;20391;-75
2024/03/31 00:18:16;;;;;;;;;;;17.30;59.20;;;;;;5051811;28;19909;-75
2024/03/31 00:20:42;;;;;;;;;;;17.50;59.80;;;;;;5051822;28;19917;-75
2024/03/31 00:23:08;;;;;;;;;;;17.30;59.80;;;;;;5051650;28;20371;-75
2024/03/31 00:25:34;;;;;;;;;;;17.40;59.20;;;;;;5052161;28;19999;-75
2024/03/31 00:28:00;;;;;;;;;;;17.30;59.10;;;;;;5051644;28;20334;-75
2024/03/31 00:30:26;;;;;;;;;;;17.30;59.30;;;;;;5051768;28;19955;-75
2024/03/31 00:32:52;;;;;;;;;;;17.40;58.80;;;;;;5052048;28;20363;-75
2024/03/31 00:35:17;;;;;;;;;;;17.50;59.20;;;;;;5051749;28;19967;-75
2024/03/31 00:37:43;;;;;;;;;;;17.30;59.10;;;;;;5051819;28;20008;-75
2024/03/31 00:40:09;;;;;;;;;;;17.40;59.10;;;;;;5051215;28;19921;-75
2024/03/31 00:42:35;;;;;;;;;;;17.30;58.80;;;;;;5051472;28;19944;-75
2024/03/31 00:45:01;;;;;;;;;;;17.40;59.10;;;;;;5051843;28;19909;-75
2024/03/31 00:47:27;;;;;;;;;;;18.60;59.50;;;;;;5051296;28;19931;-75
2024/03/31 00:49:53;;;;;;;;;;;17.30;59.00;;;;;;5051265;28;19909;-75
2024/03/31 00:52:19;;;;;;;;;;;17.20;59.30;;;;;;5051311;28;19908;-75
2024/03/31 00:54:45;;;;;;;;;;;17.30;59.10;;;;;;5051353;28;19920;-75
2024/03/31 00:57:11;;;;;;;;;;;17.40;59.30;;;;;;5051631;28;19915;-75
2024/03/31 00:59:37;;;;;;;;;;;17.30;59.90;;;;;;5052016;28;19985;-75
2024/03/31 01:02:03;;;;;;;;;;;17.40;59.00;;;;;;5055018;28;19917;-75
2024/03/31 01:04:29;;;;;;;;;;;17.30;59.30;;;;;;5055193;28;19950;-75
2024/03/31 01:06:55;;;;;;;;;;;17.30;59.30;;;;;;5054811;28;20319;-75
2024/03/31 01:09:21;;;;;;;;;;;17.30;59.20;;;;;;5054771;28;19913;-75
2024/03/31 01:11:49;;;;;;;;;;;17.30;59.40;;;;;;5054988;28;19909;-75
2024/03/31 01:14:16;;;;;;;;;;;17.30;59.10;;;;;;5054654;28;19908;-75
2024/03/31 01:16:42;;;;;;;;;;;17.60;59.50;;;;;;5054546;28;19909;-75
2024/03/31 01:19:09;;;;;;;;;;;17.30;59.50;;;;;;5055368;28;19960;-75
2024/03/31 01:21:35;;;;;;;;;;;17.30;59.30;;;;;;5054673;28;19916;-75
2024/03/31 01:24:01;;;;;;;;;;;17.30;59.50;;;;;;5054386;28;19955;-75
2024/03/31 01:26:30;;;;;;;;;;;17.20;59.20;;;;;;5054638;28;20287;-75
2024/03/31 01:28:56;;;;;;;;;;;17.60;57.50;;;;;;5054638;28;19913;-75
2024/03/31 01:31:22;;;;;;;;;;;17.30;59.30;;;;;;5054697;28;20011;-75
2024/03/31 01:33:48;;;;;;;;;;;17.30;59.50;;;;;;5054630;28;19916;-75
2024/03/31 01:36:13;;;;;;;;;;;17.30;59.00;;;;;;5054513;28;19909;-75
2024/03/31 01:38:39;;;;;;;;;;;17.30;59.30;;;;;;5053973;28;20011;-75
2024/03/31 01:41:05;;;;;;;;;;;17.10;59.20;;;;;;5054396;28;19920;-75
2024/03/31 01:43:31;;;;;;;;;;;17.30;59.50;;;;;;5054066;28;20260;-75
2024/03/31 01:45:57;;;;;;;;;;;17.30;59.50;;;;;;5054370;28;20325;-75
2024/03/31 01:48:23;;;;;;;;;;;17.30;59.40;;;;;;5054840;28;19948;-75
2024/03/31 01:50:49;;;;;;;;;;;17.30;59.30;;;;;;5054172;28;19909;-75
2024/03/31 01:53:15;;;;;;;;;;;17.30;59.30;;;;;;5053974;28;20023;-75
2024/03/31 01:55:41;;;;;;;;;;;17.30;59.40;;;;;;5053902;28;19909;-75
2024/03/31 01:58:07;;;;;;;;;;;17.40;58.70;;;;;;5053870;28;19909;-74
2024/03/31 02:00:33;;;;;;;;;;;17.40;59.40;;;;;;5054141;28;19921;-74
2024/03/31 02:02:59;;;;;;;;;;;17.40;59.00;;;;;;5053818;28;19913;-75
2024/03/31 02:05:24;;;;;;;;;;;17.30;59.40;;;;;;5053704;28;20383;-75
2024/03/31 02:07:51;;;;;;;;;;;17.30;59.60;;;;;;5053659;28;20363;-75
2024/03/31 02:10:16;;;;;;;;;;;17.30;59.50;;;;;;5053382;28;19908;-75
2024/03/31 02:12:42;;;;;;;;;;;17.40;59.50;;;;;;5053520;28;19916;-75
2024/03/31 02:15:07;;;;;;;;;;;17.30;59.50;;;;;;5053561;28;19961;-75
2024/03/31 02:17:33;;;;;;;;;;;17.40;59.70;;;;;;5053565;28;20382;-75
2024/03/31 02:19:58;;;;;;;;;;;17.30;59.80;;;;;;5053730;28;19913;-75
2024/03/31 02:22:24;;;;;;;;;;;17.20;59.70;;;;;;5053360;28;19917;-75
2024/03/31 02:24:49;;;;;;;;;;;17.40;59.70;;;;;;5053350;28;19916;-75
2024/03/31 02:27:15;;;;;;;;;;;17.40;59.80;;;;;;5053364;28;20430;-75
2024/03/31 02:29:41;;;;;;;;;;;17.30;59.60;;;;;;5053283;28;20000;-75
2024/03/31 02:32:07;;;;;;;;;;;17.30;59.80;;;;;;5053557;28;20347;-75
2024/03/31 02:34:33;;;;;;;;;;;17.30;59.60;;;;;;5053718;28;20319;-75
2024/03/31 02:36:58;;;;;;;;;;;17.60;59.70;;;;;;5051837;28;19948;-75
2024/03/31 02:39:24;;;;;;;;;;;17.40;59.70;;;;;;5052974;28;19928;-75
2024/03/31 02:41:50;;;;;;;;;;;17.30;59.70;;;;;;5052948;28;20422;-75
2024/03/31 02:44:16;;;;;;;;;;;17.30;59.60;;;;;;5052977;28;19917;-75
2024/03/31 02:46:42;;;;;;;;;;;17.30;59.80;;;;;;5053172;28;19961;-75
2024/03/31 02:49:07;;;;;;;;;;;17.40;59.80;;;;;;5052973;28;20015;-75
2024/03/31 02:51:33;;;;;;;;;;;17.30;59.80;;;;;;5052858;28;20413;-75
2024/03/31 02:53:58;;;;;;;;;;;17.30;59.90;;;;;;5052847;28;20402;-75
2024/03/31 02:56:24;;;;;;;;;;;17.60;60.00;;;;;;5052873;28;19968;-75
2024/03/31 02:58:49;;;;;;;;;;;17.40;59.90;;;;;;5052781;28;20335;-75
2024/03/31 03:01:15;;;;;;;;;;;17.40;59.30;;;;;;5052590;28;19924;-75
2024/03/31 03:03:40;;;;;;;;;;;17.40;59.90;;;;;;5053230;28;19915;-75
2024/03/31 03:06:06;;;;;;;;;;;17.40;59.80;;;;;;5052661;28;19909;-75
2024/03/31 03:08:31;;;;;;;;;;;17.30;59.90;;;;;;5052664;28;20318;-75
2024/03/31 03:10:57;;;;;;;;;;;17.50;60.00;;;;;;5051286;28;19952;-75
2024/03/31 03:13:24;;;;;;;;;;;17.30;59.90;;;;;;5052536;28;19909;-75
2024/03/31 03:15:50;;;;;;;;;;;17.30;59.60;;;;;;5052765;28;19909;-75
2024/03/31 03:18:17;;;;;;;;;;;17.30;59.80;;;;;;5052410;28;20355;-75
2024/03/31 03:20:43;;;;;;;;;;;17.30;59.80;;;;;;5052249;28;19962;-75
2024/03/31 03:23:08;;;;;;;;;;;17.30;60.40;;;;;;5051961;28;19913;-75
2024/03/31 03:25:34;;;;;;;;;;;17.40;59.80;;;;;;5052278;28;19909;-75
2024/03/31 03:27:59;;;;;;;;;;;17.30;59.80;;;;;;5052295;28;19909;-75
2024/03/31 03:30:25;;;;;;;;;;;17.00;59.30;;;;;;5052259;28;20423;-75
2024/03/31 03:32:50;;;;;;;;;;;17.30;60.00;;;;;;5052736;28;20363;-75
2024/03/31 03:35:16;;;;;;;;;;;17.30;59.80;;;;;;5052155;28;19947;-75
2024/03/31 03:37:42;;;;;;;;;;;17.20;59.90;;;;;;5052063;28;19963;-75
2024/03/31 03:40:07;;;;;;;;;;;17.30;60.30;;;;;;5051866;28;19920;-75
2024/03/31 03:42:33;;;;;;;;;;;17.30;59.40;;;;;;5051972;28;19923;-75
2024/03/31 03:45:00;;;;;;;;;;;17.30;57.70;;;;;;5051618;28;20398;-71
2024/03/31 03:47:26;;;;;;;;;;;17.30;59.80;;;;;;5051876;28;20061;-71
2024/03/31 03:49:51;;;;;;;;;;;17.30;59.60;;;;;;5051911;28;19909;-71
2024/03/31 03:52:20;;;;;;;;;;;17.30;59.70;;;;;;5051836;28;19909;-71
2024/03/31 03:54:45;;;;;;;;;;;17.40;56.50;;;;;;5051803;28;19913;-72
2024/03/31 03:57:11;;;;;;;;;;;17.30;59.70;;;;;;5051778;28;19970;-71
2024/03/31 03:59:36;;;;;;;;;;;17.30;59.50;;;;;;5052317;28;20007;-71
2024/03/31 04:02:02;;;;;;;;;;;17.50;59.30;;;;;;5051590;28;19917;-71
2024/03/31 04:04:27;;;;;;;;;;;17.50;59.80;;;;;;5051998;28;19909;-72
2024/03/31 04:06:53;;;;;;;;;;;17.30;59.80;;;;;;5051760;28;20287;-71
2024/03/31 04:09:18;;;;;;;;;;;17.20;59.70;;;;;;5051705;28;20039;-71
2024/03/31 04:11:44;;;;;;;;;;;17.30;59.60;;;;;;5051968;28;19916;-71
2024/03/31 04:14:09;;;;;;;;;;;17.30;59.40;;;;;;5051667;28;19920;-71
2024/03/31 04:16:35;;;;;;;;;;;17.30;59.70;;;;;;5051677;28;20075;-71
2024/03/31 04:19:01;;;;;;;;;;;17.60;59.70;;;;;;5051910;28;19908;-71
2024/03/31 04:21:26;;;;;;;;;;;17.40;59.70;;;;;;5051602;28;19956;-71
2024/03/31 04:23:54;;;;;;;;;;;17.30;59.60;;;;;;5051585;28;19909;-71
2024/03/31 04:26:19;;;;;;;;;;;18.50;60.10;;;;;;5051778;28;19920;-71
2024/03/31 04:28:44;;;;;;;;;;;17.30;59.60;;;;;;5052111;28;19916;-72
2024/03/31 04:31:10;;;;;;;;;;;17.30;59.70;;;;;;5051564;28;19909;-71
2024/03/31 04:33:35;;;;;;;;;;;17.30;59.40;;;;;;5052060;28;19908;-72
2024/03/31 04:36:01;;;;;;;;;;;17.30;59.60;;;;;;5055487;28;20333;-71
2024/03/31 04:38:26;;;;;;;;;;;17.30;59.50;;;;;;5055335;28;19923;-71
2024/03/31 04:40:52;;;;;;;;;;;17.40;59.70;;;;;;5055408;28;19920;-71
2024/03/31 04:43:18;;;;;;;;;;;17.30;59.20;;;;;;5055301;28;19909;-75
2024/03/31 04:45:43;;;;;;;;;;;17.30;59.70;;;;;;5055153;28;20007;-74
2024/03/31 04:48:09;;;;;;;;;;;17.20;59.50;;;;;;5055268;28;19916;-74
2024/03/31 04:50:36;;;;;;;;;;;17.30;59.70;;;;;;5055122;28;19913;-75
2024/03/31 04:53:01;;;;;;;;;;;17.30;59.70;;;;;;5055202;28;19954;-75
2024/03/31 04:55:27;;;;;;;;;;;17.30;59.70;;;;;;5054971;28;19999;-75
2024/03/31 04:57:52;;;;;;;;;;;17.30;59.60;;;;;;5055620;28;19917;-75
2024/03/31 05:00:18;;;;;;;;;;;17.20;59.30;;;;;;5054907;28;19913;-75
2024/03/31 05:02:46;;;;;;;;;;;17.30;59.40;;;;;;5054930;28;19955;-75
2024/03/31 05:05:11;;;;;;;;;;;17.30;59.90;;;;;;5055022;28;19916;-75
2024/03/31 05:07:36;;;;;;;;;;;17.20;59.90;;;;;;5054883;28;19928;-74
2024/03/31 05:10:03;;;;;;;;;;;17.30;60.00;;;;;;5054950;28;19909;-74
2024/03/31 05:12:29;;;;;;;;;;;17.20;59.70;;;;;;5054795;28;19988;-74
2024/03/31 05:14:55;;;;;;;;;;;17.20;60.00;;;;;;5054761;28;19956;-75
2024/03/31 05:17:20;;;;;;;;;;;17.40;60.00;;;;;;5054753;28;19951;-74
2024/03/31 05:19:50;;;;;;;;;;;17.20;60.10;;;;;;5054608;28;19909;-75
2024/03/31 05:22:15;;;;;;;;;;;17.20;59.90;;;;;;5054579;28;19924;-75
2024/03/31 05:24:43;;;;;;;;;;;17.20;60.10;;;;;;5054542;28;20055;-75
2024/03/31 05:27:08;;;;;;;;;;;17.20;60.20;;;;;;5054955;28;20004;-75
2024/03/31 05:29:34;;;;;;;;;;;17.20;59.90;;;;;;5054467;28;19999;-75
2024/03/31 05:31:59;;;;;;;;;;;17.20;59.90;;;;;;5054499;28;20001;-74
2024/03/31 05:34:25;;;;;;;;;;;17.30;60.00;;;;;;5054332;28;19912;-74
2024/03/31 05:36:50;;;;;;;;;;;17.20;60.00;;;;;;5054459;28;19916;-75
2024/03/31 05:39:15;;;;;;;;;;;17.20;60.20;;;;;;5054027;28;19929;-74
2024/03/31 05:41:41;;;;;;;;;;;17.20;60.00;;;;;;5054019;28;19916;-74
2024/03/31 05:44:07;;;;;;;;;;;17.20;60.20;;;;;;5054015;28;19959;-74
2024/03/31 05:46:33;;;;;;;;;;;17.30;60.20;;;;;;5052133;28;20228;-75
2024/03/31 05:48:58;;;;;;;;;;;17.30;60.10;;;;;;5054013;28;19909;-75
2024/03/31 05:51:23;;;;;;;;;;;17.20;60.00;;;;;;5054010;28;19909;-75
2024/03/31 05:53:49;;;;;;;;;;;17.30;59.60;;;;;;5054319;28;20003;-74
2024/03/31 05:56:15;;;;;;;;;;;17.30;59.50;;;;;;5053704;28;19920;-74
2024/03/31 05:58:41;;;;;;;;;;;17.30;60.20;;;;;;5053623;28;19962;-75
2024/03/31 06:01:06;;;;;;;;;;;17.30;60.10;;;;;;5053627;28;19923;-75
2024/03/31 06:03:32;;;;;;;;;;;17.40;59.60;;;;;;5053607;28;19978;-75
2024/03/31 06:05:57;;;;;;;;;;;17.40;60.20;;;;;;5053809;28;19909;-74
2024/03/31 06:08:23;;;;;;;;;;;17.30;60.10;;;;;;5053727;28;19916;-74
2024/03/31 06:10:48;;;;;;;;;;;17.30;60.20;;;;;;5053636;28;19948;-75
2024/03/31 06:13:13;;;;;;;;;;;17.30;60.00;;;;;;5053603;28;19947;-75
2024/03/31 06:15:39;;;;;;;;;;;17.40;60.20;;;;;;5053365;28;19912;-75
2024/03/31 06:18:05;;;;;;;;;;;17.40;59.90;;;;;;5053474;28;19924;-75
2024/03/31 06:20:30;;;;;;;;;;;17.30;60.20;;;;;;5053380;28;20382;-75
2024/03/31 06:22:55;;;;;;;;;;;17.40;60.10;;;;;;5053813;28;19909;-75
2024/03/31 06:25:21;;;;;;;;;;;17.30;60.10;;;;;;5053350;28;19963;-75
2024/03/31 06:27:47;;;;;;;;;;;17.30;60.00;;;;;;5053262;28;19908;-75
2024/03/31 06:30:12;;;;;;;;;;;17.40;60.20;;;;;;5053341;28;20003;-74
2024/03/31 06:32:38;;;;;;;;;;;17.40;60.20;;;;;;5053192;28;19916;-74
2024/03/31 06:35:04;;;;;;;;;;;17.30;60.20;;;;;;5053116;28;20363;-75
2024/03/31 06:37:29;;;;;;;;;;;17.30;59.50;;;;;;5053112;28;19909;-74
2024/03/31 06:39:55;;;;;;;;;;;17.30;59.90;;;;;;5052759;28;20463;-74
2024/03/31 06:42:20;;;;;;;;;;;17.30;60.20;;;;;;5052846;28;20337;-74
2024/03/31 06:44:46;;;;;;;;;;;17.50;60.30;;;;;;5052876;28;19908;-75
2024/03/31 06:47:11;;;;;;;;;;;17.40;60.30;;;;;;5052800;28;20425;-74
2024/03/31 06:49:37;;;;;;;;;;;17.30;60.10;;;;;;5052816;28;19909;-75
2024/03/31 06:52:02;;;;;;;;;;;17.40;60.10;;;;;;5053190;28;19956;-74
2024/03/31 06:54:28;;;;;;;;;;;17.30;60.10;;;;;;5052995;28;20272;-74
2024/03/31 06:56:53;;;;;;;;;;;17.40;60.10;;;;;;5052067;28;19909;-75
2024/03/31 06:59:19;;;;;;;;;;;17.40;60.20;;;;;;5052216;28;19908;-74
2024/03/31 07:01:45;;;;;;;;;;;17.50;59.70;;;;;;5052496;28;20064;-74
2024/03/31 07:04:10;;;;;;;;;;;17.80;60.60;;;;;;5052596;28;19931;-74
2024/03/31 07:06:36;;;;;;;;;;;17.30;60.20;;;;;;5052552;28;19908;-74
2024/03/31 07:09:01;;;;;;;;;;;17.40;60.00;;;;;;5052416;28;19913;-74
2024/03/31 07:11:27;;;;;;;;;;;17.40;60.00;;;;;;5052552;28;19930;-74
2024/03/31 07:13:53;;;;;;;;;;;17.80;60.10;;;;;;5051222;28;19909;-73
2024/03/31 07:16:18;;;;;;;;;;;17.40;60.00;;;;;;5052402;28;19908;-73
2024/03/31 07:18:44;;;;;;;;;;;17.40;60.00;;;;;;5052310;28;19999;-73
2024/03/31 07:21:09;;;;;;;;;;;17.40;60.00;;;;;;5052762;28;20241;-72
2024/03/31 07:23:35;;;;;;;;;;;17.40;59.80;;;;;;5052243;28;19913;-73
2024/03/31 07:26:00;;;;;;;;;;;17.50;60.20;;;;;;5050764;28;19947;-72
2024/03/31 07:28:26;;;;;;;;;;;17.20;60.10;;;;;;5052039;28;19940;-73
2024/03/31 07:30:52;;;;;;;;;;;17.40;60.00;;;;;;5050245;28;19916;-72
2024/03/31 07:33:18;;;;;;;;;;;17.40;60.60;;;;;;5052142;28;20249;-73
2024/03/31 07:35:44;;;;;;;;;;;17.50;60.30;;;;;;5052129;28;19978;-72
2024/03/31 07:38:09;;;;;;;;;;;17.50;60.20;;;;;;5051955;28;20372;-72
2024/03/31 07:40:34;;;;;;;;;;;17.80;60.30;;;;;;5051665;28;20015;-72
2024/03/31 07:43:00;;;;;;;;;;;17.50;60.40;;;;;;5051939;28;19916;-73
2024/03/31 07:45:25;;;;;;;;;;;17.40;60.40;;;;;;5052107;28;20270;-72
2024/03/31 07:47:51;;;;;;;;;;;17.70;60.00;;;;;;5052394;28;19909;-72
2024/03/31 07:50:17;;;;;;;;;;;17.50;60.20;;;;;;5051807;28;19913;-72
2024/03/31 07:52:42;;;;;;;;;;;17.50;60.50;;;;;;5051957;28;19909;-71
2024/03/31 07:55:08;;;;;;;;;;;17.50;60.40;;;;;;5051687;28;20032;-70
2024/03/31 07:57:34;;;;;;;;;;;17.50;60.30;;;;;;5051873;28;19909;-71
2024/03/31 08:00:00;;;;;;;;;;;17.50;60.30;;;;;;5051917;28;19909;-72
2024/03/31 08:02:25;;;;;;;;;;;17.60;60.00;;;;;;5051780;28;20019;-71
2024/03/31 08:04:51;;;;;;;;;;;17.50;60.50;;;;;;5051774;28;20287;-72
2024/03/31 08:07:16;;;;;;;;;;;17.50;60.40;;;;;;5051734;28;19915;-71
2024/03/31 08:09:42;;;;;;;;;;;17.50;60.50;;;;;;5054027;28;19923;-74
2024/03/31 08:12:07;;;;;;;;;;;17.40;60.20;;;;;;5055921;28;19908;-75
2024/03/31 08:14:33;;;;;;;;;;;17.50;60.40;;;;;;5055919;28;19915;-74
2024/03/31 08:16:58;;;;;;;;;;;17.50;60.00;;;;;;5055942;28;20359;-76
2024/03/31 08:19:24;;;;;;;;;;;17.60;69.00;;;;;;5055955;28;20002;-77
2024/03/31 08:21:50;;;;;;;;;;;17.70;70.30;;;;;;5055879;28;19916;-76
2024/03/31 08:24:16;;;;;;;;;;;17.60;70.80;;;;;;5055734;28;19920;-76
2024/03/31 08:26:41;;;;;;;;;;;17.70;71.00;;;;;;5054542;28;20271;-76
2024/03/31 08:29:07;;;;;;;;;;;17.70;71.10;;;;;;5055895;28;19995;-76
2024/03/31 08:31:32;;;;;;;;;;;17.70;71.30;;;;;;5055692;28;19916;-77
2024/03/31 08:33:58;;;;;;;;;;;17.60;71.30;;;;;;5055877;28;19909;-76
2024/03/31 08:36:24;;;;;;;;;;;17.80;72.00;;;;;;5056010;28;20358;-76
2024/03/31 08:38:50;;;;;;;;;;;17.80;71.90;;;;;;5055289;28;19917;-76
2024/03/31 08:41:23;;;;;;;;;;;17.70;72.40;;;;;;5055310;28;19928;-75
2024/03/31 08:43:49;;;;;;;;;;;17.70;67.30;;;;;;5055690;28;19909;-78
2024/03/31 08:46:15;;;;;;;;;;;17.70;72.40;;;;;;5055690;28;20680;-79
2024/03/31 08:48:41;;;;;;;;;;;17.70;72.80;;;;;;5055297;28;19936;-78
2024/03/31 08:51:07;;;;;;;;;;;17.70;73.10;;;;;;5055094;28;19913;-80
2024/03/31 08:53:33;;;;;;;;;;;17.70;73.60;;;;;;5055114;28;19999;-77
2024/03/31 08:55:59;;;;;;;;;;;17.80;74.30;;;;;;5055178;28;19909;-78
2024/03/31 08:58:24;;;;;;;;;;;17.70;74.70;;;;;;5053724;28;20374;-79
2024/03/31 09:00:50;;;;;;;;;;;17.70;72.40;;;;;;5055103;28;19921;-78
2024/03/31 09:03:16;;;;;;;;;;;17.80;76.30;;;;;;5054844;28;19912;-78
2024/03/31 09:05:42;;;;;;;;;;;17.80;77.40;;;;;;5055015;28;19909;-77
2024/03/31 09:08:08;;;;;;;;;;;17.90;78.00;;;;;;5054913;28;20005;-77
2024/03/31 09:10:35;;;;;;;;;;;17.90;77.80;;;;;;5053519;28;19909;-79
2024/03/31 09:13:07;;;;;;;;;;;17.90;78.40;;;;;;5055003;28;19952;-78
2024/03/31 09:15:33;;;;;;;;;;;17.90;73.60;;;;;;5053453;28;19916;-81
2024/03/31 09:17:59;;;;;;;;;;;17.90;78.00;;;;;;5057675;28;20095;-77
2024/03/31 09:20:24;;;;;;;;;;;18.00;78.80;;;;;;5054258;28;19951;-72
2024/03/31 09:22:50;;;;;;;;;;;18.00;79.00;;;;;;5055206;28;19917;-74
2024/03/31 09:25:15;;;;;;;;;;;18.00;79.20;;;;;;5054699;28;20357;-79
2024/03/31 09:27:41;;;;;;;;;;;18.00;78.70;;;;;;5054654;28;19989;-78
2024/03/31 09:30:07;;;;;;;;;;;18.10;79.60;;;;;;5053365;28;20547;-77
2024/03/31 09:32:33;;;;;;;;;;;19.00;79.90;;;;;;5054509;28;19956;-77
2024/03/31 09:34:59;;;;;;;;;;;18.10;79.80;;;;;;5054869;28;20007;-77
2024/03/31 09:37:24;;;;;;;;;;;18.10;81.40;;;;;;5053074;28;19909;-78
2024/03/31 09:39:52;;;;;;;;;;;18.10;83.40;;;;;;5054156;28;19927;-82
2024/03/31 09:42:17;;;;;;;;;;;18.30;85.40;;;;;;5052979;28;20359;-76
2024/03/31 09:44:43;;;;;;;;;;;18.20;84.60;;;;;;5054163;28;19982;-81
2024/03/31 09:47:18;;;;;;;;;;;18.20;86.20;;;;;;5054207;28;19909;-80
2024/03/31 09:49:46;;;;;;;;;;;18.10;81.40;;;;;;5054733;28;19999;-77
2024/03/31 09:52:14;;;;;;;;;;;18.20;87.70;;;;;;5054107;28;19915;-75
2024/03/31 09:54:44;;;;;;;;;;;18.20;88.10;;;;;;5054415;28;20325;-75
2024/03/31 09:57:10;;;;;;;;;;;17.60;82.00;;;;;;5054070;28;19931;-76
2024/03/31 09:59:40;;;;;;;;;;;18.30;89.10;;;;;;5054138;28;19917;-80
2024/03/31 10:02:10;;;;;;;;;;;18.30;82.50;;;;;;5052557;28;20413;-79
2024/03/31 10:04:39;;;;;;;;;;;18.40;85.20;;;;;;5053791;28;19912;-74
2024/03/31 10:07:05;;;;;;;;;;;18.50;90.20;;;;;;5053787;28;20264;-72
2024/03/31 10:09:31;;;;;;;;;;;18.60;90.20;;;;;;5053773;28;19916;-75
2024/03/31 10:11:57;;;;;;;;;;;18.50;90.80;;;;;;5053706;28;19931;-75
2024/03/31 10:14:23;;;;;;;;;;;18.60;90.70;;;;;;5052256;28;19908;-77
2024/03/31 10:16:50;;;;;;;;;;;18.60;91.10;;;;;;5053612;28;19970;-75
2024/03/31 10:19:16;;;;;;;;;;;19.20;90.90;;;;;;5053608;28;19951;-76
2024/03/31 10:21:43;;;;;;;;;;;18.90;91.20;;;;;;5053530;28;20323;-78
2024/03/31 10:24:09;;;;;;;;;;;18.90;91.20;;;;;;5053414;28;19915;-78
2024/03/31 10:26:35;;;;;;;;;;;19.00;91.70;;;;;;5053478;28;20392;-83
2024/03/31 10:29:00;;;;;;;;;;;19.30;92.10;;;;;;5053487;28;20004;-78
2024/03/31 10:31:26;;;;;;;;;;;19.20;92.00;;;;;;5053019;28;19912;-77
2024/03/31 10:33:52;;;;;;;;;;;19.40;92.20;;;;;;5053272;28;19947;-77
2024/03/31 10:36:18;;;;;;;;;;;19.50;92.40;;;;;;5051985;28;19916;-77
2024/03/31 10:38:47;;;;;;;;;;;19.30;92.30;;;;;;5051933;28;19908;-76
2024/03/31 10:41:13;;;;;;;;;;;;;;;;;;5053169;28;19917;-77
2024/03/31 10:43:40;;;;;;;;;;;;;;;;;;5053184;28;20375;-74
2024/03/31 10:46:07;;;;;;;;;;;;;;;;;;5053164;28;19959;-77
2024/03/31 10:48:37;;;;;;;;;;;;;;;;;;5053147;28;19916;-76
2024/03/31 10:51:15;;;;;;;;;;;19.60;71.60;;;;;;5052934;28;20398;-74
2024/03/31 10:53:40;;;;;;;;;;;19.70;66.90;;;;;;5053003;28;20026;-74
2024/03/31 10:56:06;;;;;;;;;;;19.80;70.90;;;;;;5053502;28;20072;-77
2024/03/31 10:58:32;;;;;;;;;;;19.90;71.40;;;;;;5052906;28;19963;-75
2024/03/31 11:00:58;;;;;;;;;;;19.90;71.40;;;;;;5052634;28;19920;-77
2024/03/31 11:03:33;;;;;;;;;;;19.90;71.30;;;;;;5051318;28;19996;-76
2024/03/31 11:05:58;;;;;;;;;;;20.30;67.90;;;;;;5052668;28;19916;-76
2024/03/31 11:08:24;;;;;;;;;;;20.20;71.70;;;;;;5052647;28;19909;-81
2024/03/31 11:10:51;;;;;;;;;;;19.70;71.80;;;;;;5051259;28;19955;-77
2024/03/31 11:13:16;;;;;;;;;;;20.10;72.20;;;;;;5052608;28;19915;-74
2024/03/31 11:15:42;;;;;;;;;;;20.20;72.40;;;;;;5052546;28;19952;-75
2024/03/31 11:18:07;;;;;;;;;;;20.20;72.00;;;;;;5051173;28;19956;-75
2024/03/31 11:20:42;;;;;;;;;;;20.20;72.70;;;;;;5052445;28;19909;-74
2024/03/31 11:23:12;;;;;;;;;;;20.30;73.40;;;;;;5052510;28;19920;-75
2024/03/31 11:25:41;;;;;;;;;;;20.30;73.50;;;;;;5053275;28;19909;-76
2024/03/31 11:28:08;;;;;;;;;;;20.30;73.60;;;;;;5052574;28;19908;-73
2024/03/31 11:30:34;;;;;;;;;;;20.30;73.80;;;;;;5051091;28;19915;-76
2024/03/31 11:33:02;;;;;;;;;;;20.30;73.00;;;;;;5052208;28;20356;-77
2024/03/31 11:35:28;;;;;;;;;;;20.20;73.60;;;;;;5052343;28;19916;-77
2024/03/31 11:37:59;;;;;;;;;;;20.10;73.40;;;;;;5052260;28;20367;-76
2024/03/31 11:40:25;;;;;;;;;;;20.20;73.40;;;;;;5050728;28;19925;-77
2024/03/31 11:42:50;;;;;;;;;;;20.30;73.40;;;;;;5052032;28;19924;-76
2024/03/31 11:45:16;;;;;;;;;;;20.80;73.70;;;;;;5051668;28;19931;-77
2024/03/31 11:47:42;;;;;;;;;;;20.60;72.80;;;;;;5050800;28;19916;-77
2024/03/31 11:50:07;;;;;;;;;;;20.40;72.50;;;;;;5052046;28;19908;-76
2024/03/31 11:52:33;;;;;;;;;;;20.30;72.70;;;;;;5052640;28;20253;-76
2024/03/31 11:54:59;;;;;;;;;;;20.20;72.40;;;;;;5050773;28;20465;-76
2024/03/31 11:57:24;;;;;;;;;;;20.20;72.70;;;;;;5052293;28;20103;-77
2024/03/31 11:59:56;;;;;;;;;;;20.20;72.70;;;;;;5050708;28;20421;-76
2024/03/31 12:02:21;;;;;;;;;;;20.10;71.30;;;;;;5050500;28;19917;-76
2024/03/31 12:04:49;;;;;;;;;;;20.10;71.60;;;;;;5052094;28;19912;-76
2024/03/31 12:07:15;;;;;;;;;;;20.20;67.20;;;;;;5050683;28;19910;-76
2024/03/31 12:09:41;;;;;;;;;;;20.10;71.80;;;;;;5051976;28;19909;-76
2024/03/31 12:12:06;;;;;;;;;;;20.10;71.50;;;;;;5051867;28;19913;-76
2024/03/31 12:14:32;;;;;;;;;;;20.00;70.80;;;;;;5050548;28;19916;-77
2024/03/31 12:16:57;;;;;;;;;;;19.90;71.00;;;;;;5050530;28;19916;-77
2024/03/31 12:19:23;;;;;;;;;;;20.00;71.20;;;;;;5051919;28;19944;-81
2024/03/31 12:21:49;;;;;;;;;;;19.90;71.20;;;;;;5052158;28;19916;-75
2024/03/31 12:24:15;;;;;;;;;;;20.00;71.80;;;;;;5051701;28;19908;-77
2024/03/31 12:26:41;;;;;;;;;;;19.90;71.80;;;;;;5050428;28;19909;-79
2024/03/31 12:29:07;;;;;;;;;;;20.00;71.20;;;;;;5051681;28;20026;-76
2024/03/31 12:31:32;;;;;;;;;;;19.90;71.80;;;;;;5051719;28;20003;-77
2024/03/31 12:33:58;;;;;;;;;;;20.00;71.30;;;;;;5051832;28;19913;-76
2024/03/31 12:36:23;;;;;;;;;;;19.90;71.40;;;;;;5051710;28;20367;-77
2024/03/31 12:38:49;;;;;;;;;;;19.90;71.50;;;;;;5051353;28;20295;-79
2024/03/31 12:41:15;;;;;;;;;;;20.30;71.90;;;;;;5051490;28;19924;-78
2024/03/31 12:43:41;;;;;;;;;;;20.00;71.40;;;;;;5051808;28;19915;-78
2024/03/31 12:46:08;;;;;;;;;;;19.90;71.20;;;;;;5051813;28;19920;-79
2024/03/31 12:48:37;;;;;;;;;;;19.90;70.50;;;;;;5051531;28;19916;-80
2024/03/31 12:51:02;;;;;;;;;;;19.90;71.30;;;;;;5050260;28;19909;-77
2024/03/31 12:53:28;;;;;;;;;;;19.90;70.20;;;;;;5051577;28;19930;-76
2024/03/31 12:55:53;;;;;;;;;;;20.00;70.60;;;;;;5053936;28;19909;-80
2024/03/31 12:58:19;;;;;;;;;;;20.00;70.80;;;;;;5055195;28;19949;-82
2024/03/31 13:00:45;;;;;;;;;;;19.90;70.60;;;;;;5055130;28;19915;-77
2024/03/31 13:03:17;;;;;;;;;;;19.90;70.50;;;;;;5055216;28;20255;-81
2024/03/31 13:05:43;;;;;;;;;;;19.90;66.40;;;;;;5055173;28;19936;-78
2024/03/31 13:08:09;;;;;;;;;;;19.90;70.90;;;;;;5055614;28;20258;-75
2024/03/31 13:10:35;;;;;;;;;;;20.40;71.00;;;;;;5055016;28;19910;-78
2024/03/31 13:13:02;;;;;;;;;;;19.90;70.20;;;;;;5055051;28;19961;-77
2024/03/31 13:15:28;;;;;;;;;;;19.90;70.50;;;;;;5055127;28;19944;-76
2024/03/31 13:17:54;;;;;;;;;;;19.90;70.50;;;;;;5054859;28;20042;-78
2024/03/31 13:20:19;;;;;;;;;;;19.90;70.50;;;;;;5054902;28;19958;-77
2024/03/31 13:22:45;;;;;;;;;;;19.90;70.10;;;;;;5054718;28;19917;-74
2024/03/31 13:25:10;;;;;;;;;;;20.30;70.30;;;;;;5054750;28;19909;-74
2024/03/31 13:27:36;;;;;;;;;;;20.10;70.20;;;;;;5054632;28;19909;-76
2024/03/31 13:30:02;;;;;;;;;;;19.90;70.10;;;;;;5054824;28;19909;-72
2024/03/31 13:32:28;;;;;;;;;;;19.90;69.70;;;;;;5054836;28;20074;-74
2024/03/31 13:34:54;;;;;;;;;;;19.90;69.90;;;;;;5054785;28;19940;-79
2024/03/31 13:37:20;;;;;;;;;;;19.90;70.10;;;;;;5054799;28;19908;-78
2024/03/31 13:39:46;;;;;;;;;;;20.10;70.20;;;;;;5054393;28;19920;-80
2024/03/31 13:42:12;;;;;;;;;;;19.90;70.20;;;;;;5054308;28;20386;-78
2024/03/31 13:44:37;;;;;;;;;;;19.90;69.90;;;;;;5054366;28;19909;-80
2024/03/31 13:47:03;;;;;;;;;;;19.90;69.80;;;;;;5054398;28;19912;-80
2024/03/31 13:49:28;;;;;;;;;;;19.90;70.10;;;;;;5054133;28;19970;-78
2024/03/31 13:51:54;;;;;;;;;;;19.90;70.10;;;;;;5052913;28;19996;-79
2024/03/31 13:54:19;;;;;;;;;;;19.80;70.20;;;;;;5052910;28;19941;-79
2024/03/31 13:56:45;;;;;;;;;;;19.80;69.80;;;;;;5054210;28;19908;-80
2024/03/31 13:59:10;;;;;;;;;;;19.80;69.90;;;;;;5054176;28;19916;-79
2024/03/31 14:01:36;;;;;;;;;;;19.90;69.70;;;;;;5052493;28;20033;-78
2024/03/31 14:04:02;;;;;;;;;;;19.90;70.30;;;;;;5053997;28;19909;-77
2024/03/31 14:06:27;;;;;;;;;;;19.90;69.90;;;;;;5053160;28;20003;-77
2024/03/31 14:08:53;;;;;;;;;;;19.90;69.70;;;;;;5053795;28;20012;-78
2024/03/31 14:11:18;;;;;;;;;;;19.90;69.70;;;;;;5053824;28;19951;-76